createdAt,value
2023-10-19T00:00:04.309Z,24.00
2023-10-19T00:01:04.445Z,24.00
2023-10-19T00:02:04.392Z,22.80
2023-10-19T00:03:04.370Z,25.40
2023-10-19T00:04:04.277Z,25.40
2023-10-19T00:05:04.378Z,24.70
2023-10-19T00:06:04.243Z,25.40
2023-10-19T00:07:04.264Z,22.80
2023-10-19T00:08:04.214Z,23.60
2023-10-19T00:09:04.251Z,23.00
2023-10-19T00:10:04.170Z,20.00
2023-10-19T00:11:04.372Z,25.60
2023-10-19T00:12:04.168Z,19.80
2023-10-19T00:13:04.140Z,20.80
2023-10-19T00:14:04.124Z,19.50
2023-10-19T00:15:04.123Z,19.60
2023-10-19T00:16:04.146Z,22.20
2023-10-19T00:17:04.141Z,22.90
2023-10-19T00:18:04.111Z,22.00
2023-10-19T00:19:04.070Z,23.10
2023-10-19T00:20:04.033Z,22.80
2023-10-19T00:21:04.034Z,20.90
2023-10-19T00:22:04.030Z,20.90
2023-10-19T00:23:04.012Z,20.20
2023-10-19T00:24:03.997Z,20.20
2023-10-19T00:25:04.000Z,20.80
2023-10-19T00:26:04.002Z,20.70
2023-10-19T00:27:03.957Z,20.70
2023-10-19T00:28:03.948Z,20.60
2023-10-19T00:29:04.060Z,20.10
2023-10-19T00:30:03.922Z,20.90
2023-10-19T00:31:03.937Z,21.00
2023-10-19T00:32:04.019Z,22.40
2023-10-19T00:33:03.899Z,20.00
2023-10-19T00:34:03.867Z,20.20
2023-10-19T00:35:03.873Z,20.80
2023-10-19T00:36:03.860Z,18.20
2023-10-19T00:37:03.819Z,20.20
2023-10-19T00:38:03.858Z,19.60
2023-10-19T00:39:03.808Z,18.40
2023-10-19T00:40:03.823Z,18.50
2023-10-19T00:41:03.764Z,19.40
2023-10-19T00:42:03.769Z,18.20
2023-10-19T00:43:03.776Z,16.90
2023-10-19T00:44:03.754Z,17.70
2023-10-19T00:45:03.731Z,20.10
2023-10-19T00:46:03.728Z,18.50
2023-10-19T00:47:03.733Z,17.80
2023-10-19T00:48:03.686Z,17.50
2023-10-19T00:49:03.719Z,20.60
2023-10-19T00:50:03.651Z,22.10
2023-10-19T00:51:03.649Z,21.80
2023-10-19T00:52:03.652Z,20.70
2023-10-19T00:53:03.630Z,17.80
2023-10-19T00:54:03.600Z,18.00
2023-10-19T00:55:03.604Z,20.10
2023-10-19T00:56:03.573Z,21.60
2023-10-19T00:57:03.613Z,19.80
2023-10-19T00:58:03.555Z,20.10
2023-10-19T00:59:03.543Z,22.50
2023-10-19T01:00:03.512Z,20.30
2023-10-19T01:01:03.544Z,20.30
2023-10-19T01:02:03.556Z,20.40
2023-10-19T01:03:03.550Z,20.80
2023-10-19T01:04:03.459Z,21.20
2023-10-19T01:05:03.465Z,22.10
2023-10-19T01:06:03.441Z,19.70
2023-10-19T01:07:03.441Z,20.20
2023-10-19T01:08:03.440Z,20.00
2023-10-19T01:09:03.405Z,21.20
2023-10-19T01:10:03.394Z,18.90
2023-10-19T01:11:03.360Z,17.80
2023-10-19T01:12:03.377Z,18.20
2023-10-19T01:13:03.360Z,20.40
2023-10-19T01:14:03.340Z,20.50
2023-10-19T01:15:03.311Z,17.50
2023-10-19T01:16:03.361Z,19.70
2023-10-19T01:17:03.344Z,18.00
2023-10-19T01:18:03.299Z,18.60
2023-10-19T01:19:03.253Z,17.20
2023-10-19T01:20:03.260Z,21.00
2023-10-19T01:21:03.261Z,18.20
2023-10-19T01:22:03.255Z,18.30
2023-10-19T01:23:03.209Z,18.10
2023-10-19T01:24:03.209Z,15.60
2023-10-19T01:25:03.185Z,19.30
2023-10-19T01:26:03.195Z,18.60
2023-10-19T01:27:03.164Z,18.00
2023-10-19T01:28:03.161Z,17.40
2023-10-19T01:29:03.142Z,19.50
2023-10-19T01:30:03.149Z,17.70
2023-10-19T01:31:03.125Z,16.60
2023-10-19T01:32:03.105Z,16.90
2023-10-19T01:33:03.112Z,17.70
2023-10-19T01:34:03.062Z,20.30
2023-10-19T01:35:03.077Z,16.90
2023-10-19T01:36:03.049Z,16.70
2023-10-19T01:37:03.020Z,17.40
2023-10-19T01:38:03.029Z,15.70
2023-10-19T01:39:03.013Z,15.90
2023-10-19T01:40:03.005Z,16.80
2023-10-19T01:41:02.956Z,16.80
2023-10-19T01:42:02.996Z,18.40
2023-10-19T01:43:03.027Z,19.80
2023-10-19T01:44:03.002Z,18.60
2023-10-19T01:45:02.924Z,21.20
2023-10-19T01:46:02.908Z,19.10
2023-10-19T01:47:02.939Z,20.20
2023-10-19T01:48:02.954Z,19.90
2023-10-19T01:49:02.870Z,19.20
2023-10-19T01:50:02.845Z,17.80
2023-10-19T01:51:02.837Z,18.80
2023-10-19T01:52:02.832Z,18.90
2023-10-19T01:53:02.817Z,16.60
2023-10-19T01:54:02.827Z,16.10
2023-10-19T01:55:02.805Z,16.20
2023-10-19T01:56:02.779Z,15.30
2023-10-19T01:57:03.022Z,17.10
2023-10-19T01:58:02.754Z,16.20
2023-10-19T01:59:02.794Z,15.50
2023-10-19T02:00:02.751Z,15.50
2023-10-19T02:01:02.728Z,17.20
2023-10-19T02:02:02.764Z,15.80
2023-10-19T02:03:02.765Z,14.00
2023-10-19T02:04:02.836Z,14.10
2023-10-19T02:05:02.667Z,14.60
2023-10-19T02:06:02.642Z,15.20
2023-10-19T02:07:02.661Z,15.00
2023-10-19T02:08:02.642Z,15.90
2023-10-19T02:09:02.623Z,15.40
2023-10-19T02:10:02.590Z,19.90
2023-10-19T02:11:02.582Z,18.40
2023-10-19T02:12:02.575Z,19.10
2023-10-19T02:13:02.549Z,19.50
2023-10-19T02:14:02.545Z,19.10
2023-10-19T02:15:02.517Z,21.00
2023-10-19T02:16:02.548Z,18.80
2023-10-19T02:17:02.614Z,18.20
2023-10-19T02:18:02.524Z,16.60
2023-10-19T02:19:02.483Z,16.50
2023-10-19T02:20:02.477Z,17.90
2023-10-19T02:21:02.464Z,18.80
2023-10-19T02:22:02.433Z,20.40
2023-10-19T02:23:02.415Z,19.30
2023-10-19T02:24:02.413Z,18.00
2023-10-19T02:25:02.397Z,17.90
2023-10-19T02:26:02.402Z,15.50
2023-10-19T02:27:02.710Z,18.10
2023-10-19T02:28:02.345Z,16.00
2023-10-19T02:29:02.440Z,16.10
2023-10-19T02:30:02.322Z,22.50
2023-10-19T02:31:02.357Z,19.20
2023-10-19T02:32:02.359Z,18.20
2023-10-19T02:33:02.358Z,16.30
2023-10-19T02:34:02.293Z,16.80
2023-10-19T02:35:02.353Z,19.30
2023-10-19T02:36:02.266Z,20.70
2023-10-19T02:37:02.237Z,19.90
2023-10-19T02:38:02.226Z,21.50
2023-10-19T02:39:02.217Z,18.50
2023-10-19T02:40:02.210Z,19.00
2023-10-19T02:41:02.186Z,17.80
2023-10-19T02:42:02.201Z,17.50
2023-10-19T02:43:02.195Z,16.00
2023-10-19T02:44:02.266Z,16.10
2023-10-19T02:45:02.163Z,15.50
2023-10-19T02:46:02.130Z,13.50
2023-10-19T02:47:02.268Z,13.80
2023-10-19T02:48:02.207Z,16.20
2023-10-19T02:49:02.153Z,18.00
2023-10-19T02:50:02.132Z,20.70
2023-10-19T02:51:02.853Z,17.40
2023-10-19T02:52:02.155Z,18.00
2023-10-19T02:53:02.084Z,18.50
2023-10-19T02:54:02.083Z,17.20
2023-10-19T02:55:01.997Z,14.90
2023-10-19T02:56:02.248Z,16.30
2023-10-19T02:57:02.146Z,18.30
2023-10-19T02:58:01.987Z,16.90
2023-10-19T02:59:02.185Z,19.80
2023-10-19T03:00:01.957Z,17.40
2023-10-19T03:01:02.062Z,19.30
2023-10-19T03:02:02.249Z,19.80
2023-10-19T03:03:01.987Z,17.40
2023-10-19T03:04:01.943Z,17.30
2023-10-19T03:05:01.924Z,16.00
2023-10-19T03:06:01.870Z,13.90
2023-10-19T03:07:01.845Z,14.50
2023-10-19T03:08:01.862Z,15.70
2023-10-19T03:09:01.832Z,14.20
2023-10-19T03:10:01.835Z,13.30
2023-10-19T03:11:01.819Z,16.10
2023-10-19T03:12:01.813Z,14.00
2023-10-19T03:13:01.777Z,12.70
2023-10-19T03:14:01.782Z,13.80
2023-10-19T03:15:01.817Z,19.40
2023-10-19T03:16:01.744Z,20.30
2023-10-19T03:17:02.168Z,20.20
2023-10-19T03:18:01.720Z,18.10
2023-10-19T03:19:01.714Z,16.90
2023-10-19T03:20:01.776Z,19.60
2023-10-19T03:21:01.684Z,17.70
2023-10-19T03:22:01.742Z,16.70
2023-10-19T03:23:01.698Z,16.30
2023-10-19T03:24:01.633Z,15.60
2023-10-19T03:25:01.765Z,15.00
2023-10-19T03:26:01.629Z,15.40
2023-10-19T03:27:01.581Z,19.20
2023-10-19T03:28:01.574Z,21.60
2023-10-19T03:29:01.579Z,20.60
2023-10-19T03:30:01.543Z,18.60
2023-10-19T03:31:01.573Z,19.30
2023-10-19T03:32:01.610Z,15.60
2023-10-19T03:33:01.559Z,19.80
2023-10-19T03:34:01.509Z,21.00
2023-10-19T03:35:01.632Z,19.60
2023-10-19T03:36:01.486Z,16.00
2023-10-19T03:37:01.450Z,20.30
2023-10-19T03:38:01.430Z,18.20
2023-10-19T03:39:01.396Z,19.00
2023-10-19T03:40:01.602Z,18.10
2023-10-19T03:41:01.387Z,15.00
2023-10-19T03:42:01.431Z,15.50
2023-10-19T03:43:01.355Z,15.90
2023-10-19T03:44:01.355Z,15.20
2023-10-19T03:45:01.333Z,13.60
2023-10-19T03:46:01.338Z,16.80
2023-10-19T03:47:01.531Z,16.80
2023-10-19T03:48:01.304Z,19.50
2023-10-19T03:49:01.285Z,17.30
2023-10-19T03:50:01.281Z,20.20
2023-10-19T03:51:01.299Z,17.60
2023-10-19T03:52:01.236Z,17.90
2023-10-19T03:53:01.315Z,16.90
2023-10-19T03:54:01.219Z,17.30
2023-10-19T03:55:01.202Z,18.10
2023-10-19T03:56:01.230Z,15.10
2023-10-19T03:57:01.167Z,17.70
2023-10-19T03:58:01.235Z,17.40
2023-10-19T03:59:01.154Z,18.90
2023-10-19T04:00:01.184Z,21.70
2023-10-19T04:01:01.135Z,16.30
2023-10-19T04:02:01.192Z,17.10
2023-10-19T04:03:01.216Z,16.80
2023-10-19T04:04:02.022Z,16.90
2023-10-19T04:05:01.109Z,17.70
2023-10-19T04:06:01.071Z,16.60
2023-10-19T04:07:01.055Z,22.50
2023-10-19T04:08:01.097Z,19.20
2023-10-19T04:09:01.140Z,29.00
2023-10-19T04:10:01.194Z,30.20
2023-10-19T04:11:01.057Z,21.00
2023-10-19T04:12:01.086Z,19.40
2023-10-19T04:13:00.983Z,20.20
2023-10-19T04:14:00.984Z,21.20
2023-10-19T04:15:00.948Z,22.60
2023-10-19T04:16:00.974Z,18.70
2023-10-19T04:17:01.009Z,18.40
2023-10-19T04:18:00.962Z,16.30
2023-10-19T04:19:00.935Z,16.60
2023-10-19T04:20:00.892Z,19.70
2023-10-19T04:21:00.870Z,19.50
2023-10-19T04:22:00.887Z,20.30
2023-10-19T04:23:00.875Z,18.50
2023-10-19T04:24:00.933Z,16.30
2023-10-19T04:25:00.814Z,16.00
2023-10-19T04:26:00.830Z,14.70
2023-10-19T04:27:00.791Z,13.10
2023-10-19T04:28:00.844Z,15.30
2023-10-19T04:29:00.811Z,16.20
2023-10-19T04:30:00.755Z,13.40
2023-10-19T04:31:00.890Z,20.20
2023-10-19T04:32:00.791Z,18.30
2023-10-19T04:33:00.737Z,18.20
2023-10-19T04:34:00.707Z,15.30
2023-10-19T04:35:00.736Z,14.10
2023-10-19T04:36:00.833Z,16.40
2023-10-19T04:37:00.658Z,15.50
2023-10-19T04:38:00.721Z,16.20
2023-10-19T04:39:00.627Z,11.80
2023-10-19T04:40:00.654Z,18.50
2023-10-19T04:41:00.662Z,15.70
2023-10-19T04:42:00.613Z,12.50
2023-10-19T04:43:00.694Z,17.70
2023-10-19T04:44:00.598Z,14.40
2023-10-19T04:45:00.574Z,19.40
2023-10-19T04:46:00.588Z,21.40
2023-10-19T04:47:00.608Z,19.70
2023-10-19T04:48:00.608Z,21.70
2023-10-19T04:49:00.500Z,16.60
2023-10-19T04:50:00.630Z,16.00
2023-10-19T04:51:00.483Z,14.00
2023-10-19T04:52:00.453Z,15.80
2023-10-19T04:53:00.519Z,12.60
2023-10-19T04:54:00.444Z,16.70
2023-10-19T04:55:00.432Z,16.80
2023-10-19T04:56:00.435Z,17.00
2023-10-19T04:57:00.394Z,18.20
2023-10-19T04:58:00.384Z,14.50
2023-10-19T04:59:00.397Z,21.70
2023-10-19T05:00:00.403Z,19.30
2023-10-19T05:01:00.357Z,16.10
2023-10-19T05:02:01.059Z,17.20
2023-10-19T05:03:00.382Z,18.50
2023-10-19T05:04:00.349Z,13.00
2023-10-19T05:05:00.423Z,16.10
2023-10-19T05:06:00.334Z,17.20
2023-10-19T05:07:00.254Z,12.80
2023-10-19T05:08:00.304Z,19.10
2023-10-19T05:09:00.232Z,15.80
2023-10-19T05:10:00.274Z,16.10
2023-10-19T05:11:00.323Z,13.80
2023-10-19T05:12:00.227Z,15.30
2023-10-19T05:13:00.206Z,13.90
2023-10-19T05:14:00.256Z,13.10
2023-10-19T05:15:00.187Z,14.80
2023-10-19T05:16:00.383Z,13.80
2023-10-19T05:17:00.191Z,17.70
2023-10-19T05:18:00.288Z,15.30
2023-10-19T05:19:00.091Z,12.90
2023-10-19T05:20:00.141Z,13.80
2023-10-19T05:21:00.098Z,11.60
2023-10-19T05:22:00.056Z,19.30
2023-10-19T05:23:00.080Z,23.00
2023-10-19T05:24:00.042Z,17.70
2023-10-19T05:25:00.007Z,20.00
2023-10-19T05:26:00.084Z,14.70
2023-10-19T05:27:00.002Z,17.90
2023-10-19T05:27:59.991Z,18.80
2023-10-19T05:28:59.985Z,16.00
2023-10-19T05:29:59.965Z,18.20
2023-10-19T05:30:59.934Z,17.00
2023-10-19T05:32:00.059Z,22.20
2023-10-19T05:32:59.933Z,15.50
2023-10-19T05:33:59.899Z,19.40
2023-10-19T05:35:01.211Z,18.10
2023-10-19T05:35:59.892Z,21.50
2023-10-19T05:37:00.010Z,23.30
2023-10-19T05:37:59.899Z,21.40
2023-10-19T05:38:59.836Z,20.80
2023-10-19T05:39:59.850Z,19.30
2023-10-19T05:40:59.855Z,17.40
2023-10-19T05:41:59.817Z,14.90
2023-10-19T05:42:59.780Z,17.50
2023-10-19T05:43:59.819Z,18.70
2023-10-19T05:44:59.771Z,17.00
2023-10-19T05:45:59.810Z,19.90
2023-10-19T05:47:00.504Z,17.80
2023-10-19T05:47:59.732Z,17.50
2023-10-19T05:48:59.719Z,21.10
2023-10-19T05:49:59.755Z,22.80
2023-10-19T05:50:59.693Z,21.00
2023-10-19T05:51:59.673Z,21.40
2023-10-19T05:52:59.686Z,25.20
2023-10-19T05:53:59.640Z,23.90
2023-10-19T05:54:59.656Z,17.30
2023-10-19T05:55:59.670Z,18.50
2023-10-19T05:56:59.786Z,20.60
2023-10-19T05:57:59.583Z,19.40
2023-10-19T05:58:59.632Z,16.90
2023-10-19T05:59:59.579Z,17.60
2023-10-19T06:00:59.553Z,18.30
2023-10-19T06:01:59.586Z,18.40
2023-10-19T06:02:59.579Z,25.40
2023-10-19T06:03:59.551Z,21.50
2023-10-19T06:04:59.533Z,21.90
2023-10-19T06:05:59.511Z,21.90
2023-10-19T06:06:59.470Z,19.60
2023-10-19T06:07:59.467Z,17.60
2023-10-19T06:08:59.489Z,18.00
2023-10-19T06:09:59.432Z,20.40
2023-10-19T06:10:59.460Z,15.50
2023-10-19T06:11:59.384Z,19.60
2023-10-19T06:12:59.400Z,20.60
2023-10-19T06:13:59.379Z,21.90
2023-10-19T06:14:59.366Z,23.80
2023-10-19T06:15:59.406Z,18.40
2023-10-19T06:16:59.467Z,21.80
2023-10-19T06:17:59.466Z,18.50
2023-10-19T06:18:59.414Z,16.90
2023-10-19T06:19:59.298Z,20.30
2023-10-19T06:20:59.283Z,19.50
2023-10-19T06:21:59.257Z,22.20
2023-10-19T06:22:59.293Z,20.90
2023-10-19T06:23:59.239Z,27.30
2023-10-19T06:24:59.234Z,24.60
2023-10-19T06:25:59.271Z,23.80
2023-10-19T06:26:59.201Z,24.90
2023-10-19T06:27:59.194Z,17.80
2023-10-19T06:28:59.233Z,24.20
2023-10-19T06:29:59.146Z,24.90
2023-10-19T06:30:59.137Z,19.50
2023-10-19T06:31:59.228Z,21.40
2023-10-19T06:32:59.189Z,21.50
2023-10-19T06:33:59.212Z,24.80
2023-10-19T06:34:59.135Z,24.50
2023-10-19T06:35:59.069Z,22.20
2023-10-19T06:36:59.099Z,25.10
2023-10-19T06:37:59.101Z,20.30
2023-10-19T06:38:59.035Z,17.80
2023-10-19T06:39:59.023Z,17.30
2023-10-19T06:40:59.078Z,21.20
2023-10-19T06:41:59.012Z,24.70
2023-10-19T06:42:59.002Z,23.70
2023-10-19T06:43:59.004Z,23.60
2023-10-19T06:44:58.958Z,20.80
2023-10-19T06:45:58.984Z,23.10
2023-10-19T06:46:58.969Z,20.00
2023-10-19T06:47:58.937Z,25.30
2023-10-19T06:48:58.908Z,21.00
2023-10-19T06:49:58.936Z,18.40
2023-10-19T06:50:58.898Z,25.10
2023-10-19T06:51:58.842Z,25.00
2023-10-19T06:52:58.884Z,22.80
2023-10-19T06:53:58.878Z,23.60
2023-10-19T06:54:58.846Z,18.20
2023-10-19T06:55:58.837Z,23.40
2023-10-19T06:56:58.793Z,25.00
2023-10-19T06:57:58.769Z,24.60
2023-10-19T06:58:58.789Z,19.70
2023-10-19T06:59:58.766Z,17.80
2023-10-19T07:00:58.742Z,21.30
2023-10-19T07:01:58.758Z,15.70
2023-10-19T07:02:58.733Z,20.70
2023-10-19T07:03:58.753Z,20.30
2023-10-19T07:04:58.726Z,22.20
2023-10-19T07:05:58.683Z,19.00
2023-10-19T07:06:58.663Z,17.70
2023-10-19T07:07:58.695Z,16.20
2023-10-19T07:08:58.653Z,18.30
2023-10-19T07:09:58.633Z,16.80
2023-10-19T07:10:58.641Z,19.80
2023-10-19T07:11:58.585Z,19.40
2023-10-19T07:12:58.594Z,18.40
2023-10-19T07:13:58.643Z,18.90
2023-10-19T07:14:58.555Z,18.70
2023-10-19T07:15:58.571Z,19.80
2023-10-19T07:16:58.637Z,16.80
2023-10-19T07:17:58.535Z,16.30
2023-10-19T07:18:58.513Z,14.80
2023-10-19T07:19:58.510Z,14.00
2023-10-19T07:20:58.462Z,22.60
2023-10-19T07:21:58.481Z,21.10
2023-10-19T07:22:58.537Z,21.10
2023-10-19T07:23:58.447Z,21.00
2023-10-19T07:24:58.442Z,24.40
2023-10-19T07:25:58.425Z,21.40
2023-10-19T07:26:58.432Z,20.90
2023-10-19T07:27:58.391Z,19.40
2023-10-19T07:28:58.440Z,17.80
2023-10-19T07:29:58.375Z,19.90
2023-10-19T07:30:58.351Z,20.50
2023-10-19T07:31:58.495Z,19.60
2023-10-19T07:32:58.366Z,21.50
2023-10-19T07:33:58.320Z,25.40
2023-10-19T07:34:58.301Z,24.90
2023-10-19T07:35:58.274Z,23.30
2023-10-19T07:36:58.272Z,23.70
2023-10-19T07:37:58.404Z,24.00
2023-10-19T07:38:58.247Z,23.80
2023-10-19T07:39:58.226Z,22.30
2023-10-19T07:40:58.925Z,23.30
2023-10-19T07:41:58.209Z,21.50
2023-10-19T07:42:58.189Z,23.30
2023-10-19T07:43:58.214Z,23.40
2023-10-19T07:44:58.172Z,22.00
2023-10-19T07:45:58.174Z,19.90
2023-10-19T07:46:58.178Z,21.00
2023-10-19T07:47:58.139Z,22.50
2023-10-19T07:48:58.132Z,26.20
2023-10-19T07:49:58.133Z,25.60
2023-10-19T07:50:58.102Z,21.40
2023-10-19T07:51:59.126Z,24.00
2023-10-19T07:52:58.086Z,21.30
2023-10-19T07:53:58.089Z,22.70
2023-10-19T07:54:58.024Z,23.20
2023-10-19T07:55:58.068Z,22.80
2023-10-19T07:56:57.998Z,22.10
2023-10-19T07:57:57.977Z,20.60
2023-10-19T07:58:58.100Z,20.30
2023-10-19T07:59:57.967Z,19.60
2023-10-19T08:00:58.214Z,21.40
2023-10-19T08:01:57.979Z,23.20
2023-10-19T08:02:57.966Z,23.30
2023-10-19T08:03:57.981Z,24.60
2023-10-19T08:04:57.920Z,21.30
2023-10-19T08:05:57.865Z,20.50
2023-10-19T08:06:57.853Z,21.10
2023-10-19T08:07:57.913Z,22.30
2023-10-19T08:08:57.846Z,22.80
2023-10-19T08:09:57.819Z,22.20
2023-10-19T08:10:57.932Z,20.60
2023-10-19T08:11:58.474Z,21.20
2023-10-19T08:12:57.787Z,21.70
2023-10-19T08:13:57.789Z,20.70
2023-10-19T08:14:57.745Z,20.80
2023-10-19T08:15:57.762Z,23.00
2023-10-19T08:16:57.775Z,20.80
2023-10-19T08:17:57.750Z,20.80
2023-10-19T08:18:57.796Z,20.90
2023-10-19T08:19:57.718Z,21.10
2023-10-19T08:20:57.759Z,19.80
2023-10-19T08:21:57.622Z,19.60
2023-10-19T08:22:57.697Z,22.10
2023-10-19T08:23:57.627Z,20.90
2023-10-19T08:24:57.606Z,19.90
2023-10-19T08:25:57.947Z,20.20
2023-10-19T08:26:57.591Z,19.70
2023-10-19T08:27:57.584Z,17.50
2023-10-19T08:28:57.594Z,20.90
2023-10-19T08:29:57.533Z,21.80
2023-10-19T08:30:57.976Z,19.70
2023-10-19T08:31:57.592Z,20.10
2023-10-19T08:32:57.547Z,20.90
2023-10-19T08:33:57.538Z,21.10
2023-10-19T08:34:57.569Z,21.30
2023-10-19T08:35:57.523Z,21.10
2023-10-19T08:36:57.457Z,22.40
2023-10-19T08:37:57.471Z,19.50
2023-10-19T08:38:57.434Z,19.80
2023-10-19T08:39:57.395Z,20.40
2023-10-19T08:40:58.116Z,20.20
2023-10-19T08:41:57.385Z,20.10
2023-10-19T08:42:57.364Z,19.70
2023-10-19T08:43:57.421Z,19.50
2023-10-19T08:44:57.340Z,19.80
2023-10-19T08:45:57.393Z,18.40
2023-10-19T08:46:58.754Z,18.30
2023-10-19T08:47:57.432Z,18.60
2023-10-19T08:48:57.289Z,19.20
2023-10-19T08:49:57.288Z,18.70
2023-10-19T08:50:57.326Z,18.20
2023-10-19T08:51:57.215Z,20.90
2023-10-19T08:52:57.313Z,19.10
2023-10-19T08:53:57.203Z,18.70
2023-10-19T08:54:57.200Z,17.30
2023-10-19T08:55:57.218Z,18.10
2023-10-19T08:56:57.155Z,17.50
2023-10-19T08:57:57.146Z,17.20
2023-10-19T08:58:57.233Z,17.20
2023-10-19T08:59:57.117Z,17.50
2023-10-19T09:00:57.265Z,17.80
2023-10-19T09:01:57.093Z,17.90
2023-10-19T09:02:57.112Z,17.10
2023-10-19T09:03:57.117Z,15.50
2023-10-19T09:04:57.197Z,15.10
2023-10-19T09:05:57.044Z,16.50
2023-10-19T09:06:57.053Z,15.40
2023-10-19T09:07:57.065Z,16.40
2023-10-19T09:08:56.999Z,17.50
2023-10-19T09:09:57.016Z,16.20
2023-10-19T09:10:57.076Z,16.30
2023-10-19T09:11:56.968Z,16.50
2023-10-19T09:12:56.958Z,16.30
2023-10-19T09:13:57.008Z,15.90
2023-10-19T09:14:56.934Z,14.60
2023-10-19T09:15:57.873Z,13.90
2023-10-19T09:16:56.992Z,14.80
2023-10-19T09:17:56.925Z,14.30
2023-10-19T09:18:56.883Z,14.50
2023-10-19T09:19:56.920Z,15.80
2023-10-19T09:20:56.873Z,14.00
2023-10-19T09:21:56.842Z,14.50
2023-10-19T09:22:56.883Z,14.90
2023-10-19T09:23:56.828Z,15.30
2023-10-19T09:24:56.826Z,14.10
2023-10-19T09:25:56.866Z,13.80
2023-10-19T09:26:56.761Z,14.10
2023-10-19T09:27:56.809Z,13.40
2023-10-19T09:28:56.815Z,15.00
2023-10-19T09:29:56.723Z,14.40
2023-10-19T09:30:56.719Z,13.00
2023-10-19T09:31:56.731Z,12.10
2023-10-19T09:32:56.795Z,13.20
2023-10-19T09:33:56.689Z,15.30
2023-10-19T09:34:56.683Z,15.40
2023-10-19T09:35:56.636Z,15.10
2023-10-19T09:36:56.628Z,15.10
2023-10-19T09:37:56.649Z,16.20
2023-10-19T09:38:56.599Z,15.90
2023-10-19T09:39:56.596Z,15.60
2023-10-19T09:40:56.689Z,14.90
2023-10-19T09:41:56.574Z,15.10
2023-10-19T09:42:56.719Z,14.90
2023-10-19T09:43:56.610Z,14.00
2023-10-19T09:44:56.578Z,13.80
2023-10-19T09:45:56.516Z,13.20
2023-10-19T09:46:56.572Z,14.50
2023-10-19T09:47:56.574Z,14.40
2023-10-19T09:48:56.472Z,15.30
2023-10-19T09:49:56.483Z,14.60
2023-10-19T09:50:56.453Z,14.50
2023-10-19T09:52:57.426Z,15.40
2023-10-19T09:53:56.399Z,14.50
2023-10-19T09:54:56.378Z,14.60
2023-10-19T09:55:56.464Z,14.10
2023-10-19T09:56:56.367Z,14.50
2023-10-19T09:57:56.369Z,14.40
2023-10-19T09:58:56.380Z,13.50
2023-10-19T09:59:56.337Z,15.50
2023-10-19T10:00:56.382Z,14.40
2023-10-19T10:01:56.388Z,14.70
2023-10-19T10:02:56.322Z,14.00
2023-10-19T10:03:56.289Z,14.90
2023-10-19T10:04:56.298Z,14.60
2023-10-19T10:05:56.488Z,14.00
2023-10-19T10:06:56.270Z,13.40
2023-10-19T10:07:56.260Z,11.90
2023-10-19T10:08:56.215Z,12.70
2023-10-19T10:09:56.225Z,13.50
2023-10-19T10:10:56.263Z,13.50
2023-10-19T10:11:56.188Z,12.20
2023-10-19T10:12:56.163Z,12.70
2023-10-19T10:13:56.248Z,13.80
2023-10-19T10:14:56.235Z,13.50
2023-10-19T10:15:56.137Z,13.10
2023-10-19T10:16:56.163Z,12.80
2023-10-19T10:17:56.168Z,14.00
2023-10-19T10:18:56.085Z,15.60
2023-10-19T10:19:56.210Z,14.30
2023-10-19T10:20:56.119Z,13.60
2023-10-19T10:21:56.080Z,12.70
2023-10-19T10:22:56.057Z,13.40
2023-10-19T10:23:56.090Z,12.50
2023-10-19T10:24:56.028Z,13.30
2023-10-19T10:25:56.085Z,12.50
2023-10-19T10:26:56.019Z,13.20
2023-10-19T10:27:55.991Z,13.20
2023-10-19T10:28:56.008Z,12.80
2023-10-19T10:29:55.967Z,11.70
2023-10-19T10:30:56.008Z,14.20
2023-10-19T10:31:55.975Z,12.70
2023-10-19T10:32:55.956Z,12.90
2023-10-19T10:33:56.148Z,12.20
2023-10-19T10:34:55.938Z,13.50
2023-10-19T10:35:55.870Z,12.90
2023-10-19T10:36:55.860Z,13.80
2023-10-19T10:37:55.900Z,13.10
2023-10-19T10:38:55.833Z,13.90
2023-10-19T10:39:55.796Z,13.10
2023-10-19T10:40:55.843Z,14.00
2023-10-19T10:41:55.776Z,13.70
2023-10-19T10:42:55.774Z,13.00
2023-10-19T10:43:55.776Z,14.10
2023-10-19T10:44:55.726Z,13.60
2023-10-19T10:45:55.728Z,13.30
2023-10-19T10:46:55.786Z,12.20
2023-10-19T10:47:55.750Z,12.60
2023-10-19T10:48:55.696Z,12.00
2023-10-19T10:49:55.772Z,13.20
2023-10-19T10:50:56.912Z,13.20
2023-10-19T10:51:55.659Z,13.00
2023-10-19T10:52:55.676Z,12.40
2023-10-19T10:53:55.628Z,12.70
2023-10-19T10:54:55.604Z,13.00
2023-10-19T10:55:55.765Z,11.30
2023-10-19T10:56:55.572Z,11.50
2023-10-19T10:57:55.576Z,12.00
2023-10-19T10:58:55.626Z,12.70
2023-10-19T10:59:55.564Z,11.50
2023-10-19T11:00:55.559Z,11.20
2023-10-19T11:01:55.625Z,10.90
2023-10-19T11:02:55.523Z,11.90
2023-10-19T11:03:56.988Z,12.70
2023-10-19T11:04:55.541Z,11.20
2023-10-19T11:05:55.638Z,11.90
2023-10-19T11:06:55.459Z,11.30
2023-10-19T11:07:55.454Z,10.40
2023-10-19T11:08:55.447Z,11.00
2023-10-19T11:09:57.431Z,11.20
2023-10-19T11:10:55.449Z,11.30
2023-10-19T11:11:55.391Z,11.20
2023-10-19T11:12:55.362Z,10.30
2023-10-19T11:13:55.459Z,10.30
2023-10-19T11:14:55.351Z,10.70
2023-10-19T11:15:58.679Z,10.30
2023-10-19T11:16:55.421Z,11.20
2023-10-19T11:17:55.363Z,11.00
2023-10-19T11:18:55.295Z,11.10
2023-10-19T11:19:55.338Z,10.90
2023-10-19T11:20:55.285Z,11.60
2023-10-19T11:21:58.376Z,9.10
2023-10-19T11:22:56.291Z,9.30
2023-10-19T11:23:55.252Z,9.90
2023-10-19T11:24:55.211Z,10.10
2023-10-19T11:25:55.260Z,10.10
2023-10-19T11:26:55.181Z,10.00
2023-10-19T11:27:57.014Z,10.80
2023-10-19T11:28:55.229Z,11.80
2023-10-19T11:29:55.160Z,11.20
2023-10-19T11:30:55.140Z,10.40
2023-10-19T11:31:55.146Z,10.40
2023-10-19T11:32:55.194Z,8.80
2023-10-19T11:33:55.109Z,9.70
2023-10-19T11:34:55.156Z,11.40
2023-10-19T11:35:55.147Z,9.80
2023-10-19T11:36:55.071Z,10.50
2023-10-19T11:37:55.069Z,10.60
2023-10-19T11:38:55.070Z,10.90
2023-10-19T11:39:55.015Z,9.80
2023-10-19T11:40:55.034Z,9.70
2023-10-19T11:41:54.983Z,10.00
2023-10-19T11:42:54.968Z,9.70
2023-10-19T11:43:57.210Z,9.60
2023-10-19T11:44:54.928Z,9.10
2023-10-19T11:45:54.955Z,10.10
2023-10-19T11:46:55.015Z,9.30
2023-10-19T11:47:54.927Z,10.30
2023-10-19T11:48:54.887Z,9.10
2023-10-19T11:49:54.910Z,10.70
2023-10-19T11:50:54.866Z,10.30
2023-10-19T11:51:54.841Z,9.90
2023-10-19T11:52:54.982Z,9.10
2023-10-19T11:53:54.815Z,9.40
2023-10-19T11:54:54.811Z,9.60
2023-10-19T11:55:54.824Z,8.80
2023-10-19T11:56:54.783Z,8.00
2023-10-19T11:57:54.768Z,8.80
2023-10-19T11:58:54.774Z,8.80
2023-10-19T11:59:57.306Z,10.30
2023-10-19T12:00:54.722Z,9.20
2023-10-19T12:01:54.814Z,10.00
2023-10-19T12:02:54.876Z,8.70
2023-10-19T12:03:54.691Z,8.40
2023-10-19T12:04:54.686Z,8.30
2023-10-19T12:05:57.241Z,9.40
2023-10-19T12:06:54.660Z,8.80
2023-10-19T12:07:54.689Z,8.80
2023-10-19T12:08:54.615Z,8.70
2023-10-19T12:09:54.612Z,9.30
2023-10-19T12:10:54.606Z,9.00
2023-10-19T12:11:54.637Z,8.30
2023-10-19T12:13:02.028Z,9.00
2023-10-19T12:13:55.640Z,8.90
2023-10-19T12:14:54.562Z,8.10
2023-10-19T12:15:54.560Z,8.50
2023-10-19T12:17:54.674Z,9.80
2023-10-19T12:18:54.498Z,7.80
2023-10-19T12:19:54.509Z,8.60
2023-10-19T12:20:54.474Z,8.50
2023-10-19T12:21:54.433Z,8.70
2023-10-19T12:22:54.506Z,7.70
2023-10-19T12:23:54.427Z,8.20
2023-10-19T12:24:54.408Z,8.50
2023-10-19T12:25:57.697Z,8.80
2023-10-19T12:26:54.377Z,8.00
2023-10-19T12:27:54.373Z,7.60
2023-10-19T12:28:54.347Z,7.70
2023-10-19T12:29:54.349Z,7.90
2023-10-19T12:30:54.415Z,7.20
2023-10-19T12:31:54.366Z,7.60
2023-10-19T12:32:54.354Z,7.60
2023-10-19T12:33:54.279Z,7.30
2023-10-19T12:34:54.310Z,7.20
2023-10-19T12:35:54.247Z,7.90
2023-10-19T12:36:54.227Z,8.40
2023-10-19T12:37:54.292Z,7.70
2023-10-19T12:38:57.798Z,7.00
2023-10-19T12:39:54.187Z,7.50
2023-10-19T12:40:54.208Z,6.60
2023-10-19T12:41:54.156Z,7.30
2023-10-19T12:42:54.168Z,6.60
2023-10-19T12:43:54.471Z,8.40
2023-10-19T12:44:54.101Z,6.90
2023-10-19T12:45:54.147Z,8.30
2023-10-19T12:46:54.291Z,7.80
2023-10-19T12:47:54.141Z,7.60
2023-10-19T12:48:54.144Z,6.50
2023-10-19T12:49:56.461Z,6.40
2023-10-19T12:50:54.035Z,7.40
2023-10-19T12:51:54.048Z,6.90
2023-10-19T12:52:54.104Z,6.90
2023-10-19T12:53:54.006Z,7.30
2023-10-19T12:54:53.977Z,8.20
2023-10-19T12:55:54.010Z,7.90
2023-10-19T12:56:53.939Z,7.70